Terminal Aerodrome Forecast
Issued by NWS Blacksburg, VA

Home | Current Version | Previous Version | Text Only | Print | Product List | Glossary On
Versions: 1 2 3 4 5 6 7 8 9 10 11 12 13 14
000
FTUS41 KRNK 231739
TAFROA
TAF
KROA 231739Z 2318/2418 12010KT 1 1/2SM SHRA OVC005
     FM232000 12011KT 3SM SHRA OVC025 WS020/15040KT
     FM240100 17010KT 1SM +SHRA OVC040
     FM240300 24007KT P6SM BKN050
     FM240600 25006KT P6SM SCT050=

USA.gov is the U.S. government's official web portal to all federal, state and local government web resources and services.